createdAt,value
2023-03-18T00:00:34.081Z,6.13
2023-03-18T00:01:35.453Z,5.87
2023-03-18T00:02:37.415Z,6.07
2023-03-18T00:03:38.792Z,6.17
2023-03-18T00:04:40.830Z,6.03
2023-03-18T00:05:42.294Z,5.97
2023-03-18T00:06:43.597Z,6.23
2023-03-18T00:07:46.587Z,6.27
2023-03-18T00:08:49.032Z,6.43
2023-03-18T00:09:50.572Z,6.27
2023-03-18T00:10:51.903Z,5.90
2023-03-18T00:11:53.951Z,6.40
2023-03-18T00:12:55.233Z,6.33
2023-03-18T00:13:56.533Z,6.30
2023-03-18T00:14:57.831Z,6.70
2023-03-18T00:15:59.695Z,6.73
2023-03-18T00:17:01.094Z,6.57
2023-03-18T00:18:02.383Z,6.23
2023-03-18T00:19:04.185Z,6.20
2023-03-18T00:20:06.912Z,6.67
2023-03-18T00:21:08.456Z,6.23
2023-03-18T00:22:10.327Z,6.87
2023-03-18T00:23:11.697Z,6.53
2023-03-18T00:24:13.332Z,7.37
2023-03-18T00:25:14.944Z,7.10
2023-03-18T00:26:17.101Z,7.20
2023-03-18T00:27:18.983Z,7.27
2023-03-18T00:28:21.679Z,7.27
2023-03-18T00:29:23.667Z,6.93
2023-03-18T00:30:25.501Z,6.63
2023-03-18T00:31:28.792Z,6.90
2023-03-18T00:32:32.925Z,6.63
2023-03-18T00:33:35.649Z,6.70
2023-03-18T00:34:36.989Z,7.30
2023-03-18T00:35:39.329Z,7.17
2023-03-18T00:36:40.876Z,7.50
2023-03-18T00:37:42.453Z,7.10
2023-03-18T00:38:45.832Z,7.10
2023-03-18T00:39:47.191Z,7.13
2023-03-18T00:41:01.133Z,6.70
2023-03-18T00:42:10.510Z,6.40
2023-03-18T00:43:12.626Z,7.07
2023-03-18T00:44:14.812Z,7.10
2023-03-18T00:45:17.037Z,6.53
2023-03-18T00:46:19.761Z,6.60
2023-03-18T00:47:22.231Z,6.20
2023-03-18T00:48:24.277Z,6.07
2023-03-18T00:49:26.351Z,6.20
2023-03-18T00:50:28.361Z,6.20
2023-03-18T00:51:31.425Z,6.33
2023-03-18T00:52:33.619Z,6.83
2023-03-18T00:53:34.945Z,6.63
2023-03-18T00:54:36.377Z,6.60
2023-03-18T00:55:37.693Z,6.30
2023-03-18T00:56:39.560Z,7.03
2023-03-18T00:57:41.904Z,6.67
2023-03-18T00:58:43.419Z,6.57
2023-03-18T00:59:44.866Z,6.27
2023-03-18T01:00:46.921Z,6.50
2023-03-18T01:01:48.426Z,6.63
2023-03-18T01:02:50.900Z,6.17
2023-03-18T01:03:52.389Z,6.23
2023-03-18T01:04:56.990Z,6.87
2023-03-18T01:05:58.818Z,6.07
2023-03-18T01:07:01.155Z,6.10
2023-03-18T01:08:04.850Z,6.47
2023-03-18T01:09:08.734Z,7.00
2023-03-18T01:10:12.772Z,7.60
2023-03-18T01:11:15.605Z,6.23
2023-03-18T01:12:17.037Z,6.47
2023-03-18T01:13:18.509Z,6.37
2023-03-18T01:14:20.069Z,6.70
2023-03-18T01:15:21.858Z,6.07
2023-03-18T01:16:23.410Z,6.47
2023-03-18T01:17:25.590Z,6.87
2023-03-18T01:18:27.816Z,6.33
2023-03-18T01:19:29.161Z,6.50
2023-03-18T01:20:31.231Z,6.70
2023-03-18T01:21:33.626Z,6.60
2023-03-18T01:22:36.284Z,7.27
2023-03-18T01:23:38.051Z,6.50
2023-03-18T01:24:39.404Z,7.20
2023-03-18T01:25:40.794Z,6.23
2023-03-18T01:26:42.490Z,7.07
2023-03-18T01:27:44.622Z,6.33
2023-03-18T01:28:47.193Z,6.83
2023-03-18T01:29:48.660Z,6.93
2023-03-18T01:30:55.767Z,7.10
2023-03-18T01:31:57.144Z,6.50
2023-03-18T01:32:59.269Z,6.53
2023-03-18T01:34:02.113Z,7.37
2023-03-18T01:35:12.319Z,7.00
2023-03-18T01:36:18.401Z,7.07
2023-03-18T01:37:31.444Z,6.90
2023-03-18T01:38:42.794Z,6.97
2023-03-18T01:39:48.929Z,6.93
2023-03-18T01:40:55.799Z,6.97
2023-03-18T01:41:58.256Z,6.63
2023-03-18T01:43:13.197Z,6.93
2023-03-18T01:44:17.484Z,7.10
2023-03-18T01:45:23.129Z,6.83
2023-03-18T01:46:30.236Z,6.30
2023-03-18T01:47:31.665Z,6.43
2023-03-18T01:48:37.853Z,6.77
2023-03-18T01:49:43.564Z,6.97
2023-03-18T01:50:46.069Z,6.40
2023-03-18T01:51:54.996Z,7.13
2023-03-18T01:52:58.049Z,6.63
2023-03-18T01:54:00.769Z,6.90
2023-03-18T01:55:04.805Z,6.63
2023-03-18T01:56:07.032Z,6.43
2023-03-18T01:57:08.384Z,6.30
2023-03-18T01:58:13.338Z,6.53
2023-03-18T01:59:15.433Z,6.67
2023-03-18T02:00:19.941Z,6.93
2023-03-18T02:01:36.453Z,6.57
2023-03-18T02:02:40.985Z,6.47
2023-03-18T02:03:42.964Z,6.67
2023-03-18T02:04:52.504Z,7.17
2023-03-18T02:05:54.678Z,8.00
2023-03-18T02:06:58.059Z,7.90
2023-03-18T02:07:59.496Z,8.43
2023-03-18T02:09:01.379Z,7.70
2023-03-18T02:10:11.498Z,7.50
2023-03-18T02:11:13.476Z,8.10
2023-03-18T02:12:16.753Z,8.30
2023-03-18T02:13:18.488Z,8.60
2023-03-18T02:14:20.903Z,7.90
2023-03-18T02:15:24.867Z,8.37
2023-03-18T02:16:28.624Z,7.50
2023-03-18T02:17:34.195Z,7.60
2023-03-18T02:18:38.887Z,7.83
2023-03-18T02:19:46.413Z,7.10
2023-03-18T02:21:08.248Z,6.77
2023-03-18T02:22:23.608Z,6.90
2023-03-18T02:23:42.744Z,6.77
2023-03-18T02:24:46.774Z,6.47
2023-03-18T02:25:55.058Z,7.40
2023-03-18T02:26:59.506Z,8.10
2023-03-18T02:28:09.419Z,8.30
2023-03-18T02:29:12.102Z,8.53
2023-03-18T02:30:22.657Z,8.03
2023-03-18T02:31:26.378Z,7.23
2023-03-18T02:32:29.018Z,7.97
2023-03-18T02:33:38.815Z,7.70
2023-03-18T02:34:41.200Z,7.23
2023-03-18T02:35:45.109Z,7.27
2023-03-18T02:36:47.468Z,7.10
2023-03-18T02:37:48.802Z,6.87
2023-03-18T02:38:51.558Z,6.70
2023-03-18T02:40:12.102Z,6.40
2023-03-18T02:41:18.118Z,7.07
2023-03-18T02:42:29.768Z,6.97
2023-03-18T02:43:32.617Z,7.10
2023-03-18T02:44:43.243Z,6.40
2023-03-18T02:46:32.021Z,6.00
2023-03-18T02:47:33.385Z,6.63
2023-03-18T02:48:36.546Z,6.80
2023-03-18T02:49:38.106Z,7.80
2023-03-18T02:50:42.252Z,7.73
2023-03-18T02:51:44.641Z,7.80
2023-03-18T02:52:46.401Z,6.80
2023-03-18T02:53:48.301Z,5.73
2023-03-18T02:54:50.066Z,5.90
2023-03-18T02:55:51.985Z,6.20
2023-03-18T02:56:53.584Z,5.47
2023-03-18T02:57:55.070Z,5.90
2023-03-18T02:58:57.776Z,5.70
2023-03-18T02:59:59.235Z,5.80
2023-03-18T03:01:04.804Z,5.63
2023-03-18T03:02:06.460Z,5.60
2023-03-18T03:03:08.051Z,5.63
2023-03-18T03:04:10.222Z,5.80
2023-03-18T03:05:12.192Z,6.70
2023-03-18T03:06:13.822Z,6.80
2023-03-18T03:07:15.199Z,7.00
2023-03-18T03:08:21.219Z,6.67
2023-03-18T03:09:22.888Z,6.13
2023-03-18T03:10:24.843Z,5.97
2023-03-18T03:11:27.045Z,6.43
2023-03-18T03:12:32.691Z,5.70
2023-03-18T03:13:34.753Z,5.70
2023-03-18T03:14:36.106Z,5.73
2023-03-18T03:15:38.885Z,5.67
2023-03-18T03:16:40.316Z,5.10
2023-03-18T03:17:41.942Z,5.73
2023-03-18T03:18:43.937Z,6.63
2023-03-18T03:19:45.828Z,6.37
2023-03-18T03:20:50.580Z,5.87
2023-03-18T03:21:53.896Z,5.60
2023-03-18T03:22:55.273Z,6.17
2023-03-18T03:23:56.657Z,5.63
2023-03-18T03:24:58.463Z,5.53
2023-03-18T03:25:59.857Z,5.33
2023-03-18T03:27:01.552Z,5.37
2023-03-18T03:28:03.975Z,4.90
2023-03-18T03:29:05.475Z,4.27
2023-03-18T03:30:07.746Z,4.63
2023-03-18T03:31:10.722Z,5.07
2023-03-18T03:32:12.050Z,4.67
2023-03-18T03:33:13.437Z,4.83
2023-03-18T03:34:15.069Z,4.97
2023-03-18T03:35:18.026Z,5.40
2023-03-18T03:36:19.446Z,4.90
2023-03-18T03:37:21.095Z,5.20
2023-03-18T03:38:23.039Z,5.60
2023-03-18T03:39:24.351Z,5.40
2023-03-18T03:40:27.726Z,5.67
2023-03-18T03:41:29.062Z,5.30
2023-03-18T03:42:30.430Z,6.07
2023-03-18T03:43:33.935Z,5.77
2023-03-18T03:44:35.286Z,5.37
2023-03-18T03:45:36.699Z,5.23
2023-03-18T03:46:38.451Z,4.80
2023-03-18T03:47:40.883Z,4.93
2023-03-18T03:48:42.342Z,5.10
2023-03-18T03:49:47.084Z,4.80
2023-03-18T03:50:50.761Z,4.50
2023-03-18T03:51:52.163Z,4.70
2023-03-18T03:52:54.661Z,4.37
2023-03-18T03:53:56.014Z,4.60
2023-03-18T03:54:57.559Z,4.47
2023-03-18T03:56:00.064Z,4.30
2023-03-18T03:57:01.792Z,3.90
2023-03-18T03:58:03.148Z,4.13
2023-03-18T03:59:05.671Z,4.70
2023-03-18T04:00:27.144Z,4.70
2023-03-18T04:01:28.605Z,4.27
2023-03-18T04:02:31.774Z,4.13
2023-03-18T04:03:33.918Z,4.23
2023-03-18T04:04:36.080Z,4.27
2023-03-18T04:05:37.571Z,4.63
2023-03-18T04:06:39.754Z,4.10
2023-03-18T04:07:42.066Z,3.90
2023-03-18T04:08:44.036Z,5.07
2023-03-18T04:09:46.629Z,5.00
2023-03-18T04:10:48.996Z,4.20
2023-03-18T04:11:50.384Z,4.37
2023-03-18T04:12:52.079Z,4.50
2023-03-18T04:13:53.698Z,4.50
2023-03-18T04:14:55.900Z,4.43
2023-03-18T04:15:57.765Z,4.90
2023-03-18T04:17:00.440Z,4.70
2023-03-18T04:18:06.748Z,4.53
2023-03-18T04:19:08.763Z,4.47
2023-03-18T04:20:10.710Z,4.50
2023-03-18T04:21:12.086Z,4.13
2023-03-18T04:22:28.106Z,4.17
2023-03-18T04:23:29.423Z,4.13
2023-03-18T04:24:31.611Z,4.40
2023-03-18T04:25:33.336Z,4.30
2023-03-18T04:26:34.903Z,3.80
2023-03-18T04:27:39.129Z,3.53
2023-03-18T04:28:42.818Z,3.80
2023-03-18T04:29:47.628Z,3.87
2023-03-18T04:30:49.115Z,4.40
2023-03-18T04:31:52.029Z,4.40
2023-03-18T04:32:54.939Z,4.27
2023-03-18T04:33:57.323Z,3.87
2023-03-18T04:34:59.430Z,4.00
2023-03-18T04:36:00.857Z,4.27
2023-03-18T04:37:03.670Z,4.43
2023-03-18T04:38:06.450Z,4.37
2023-03-18T04:39:09.542Z,4.10
2023-03-18T04:40:14.962Z,4.73
2023-03-18T04:41:16.299Z,4.47
2023-03-18T04:42:17.959Z,4.77
2023-03-18T04:43:19.923Z,3.83
2023-03-18T04:44:24.682Z,4.20
2023-03-18T04:45:26.932Z,4.60
2023-03-18T04:46:32.569Z,4.10
2023-03-18T04:47:35.734Z,3.80
2023-03-18T04:48:37.539Z,3.70
2023-03-18T04:49:40.568Z,3.90
2023-03-18T04:50:41.912Z,3.80
2023-03-18T04:51:47.733Z,4.20
2023-03-18T04:53:00.093Z,3.83
2023-03-18T04:54:03.851Z,4.13
2023-03-18T04:55:06.592Z,3.33
2023-03-18T04:56:10.685Z,3.97
2023-03-18T04:57:19.563Z,3.97
2023-03-18T04:58:26.446Z,3.80
2023-03-18T04:59:38.691Z,3.70
2023-03-18T05:00:42.416Z,4.13
2023-03-18T05:01:53.506Z,3.43
2023-03-18T05:02:54.854Z,3.60
2023-03-18T05:03:58.859Z,3.60
2023-03-18T05:05:08.806Z,3.73
2023-03-18T05:06:19.614Z,3.27
2023-03-18T05:07:28.788Z,4.20
2023-03-18T05:08:35.880Z,3.00
2023-03-18T05:09:37.237Z,3.53
2023-03-18T05:10:41.335Z,3.60
2023-03-18T05:11:43.428Z,3.30
2023-03-18T05:13:05.133Z,3.20
2023-03-18T05:14:09.054Z,3.50
2023-03-18T05:15:18.239Z,3.17
2023-03-18T05:16:24.629Z,3.57
2023-03-18T05:17:26.041Z,3.23
2023-03-18T05:18:33.656Z,3.20
2023-03-18T05:19:36.858Z,3.40
2023-03-18T05:20:52.580Z,3.50
2023-03-18T05:21:53.995Z,3.13
2023-03-18T05:22:55.833Z,3.43
2023-03-18T05:24:10.691Z,3.03
2023-03-18T05:25:15.175Z,3.33
2023-03-18T05:26:17.094Z,3.20
2023-03-18T05:27:20.499Z,3.07
2023-03-18T05:28:30.578Z,3.20
2023-03-18T05:29:50.483Z,3.30
2023-03-18T05:30:57.022Z,3.47
2023-03-18T05:31:59.085Z,3.43
2023-03-18T05:33:01.468Z,2.90
2023-03-18T05:34:23.071Z,3.07
2023-03-18T05:35:24.715Z,3.07
2023-03-18T05:36:29.441Z,3.40
2023-03-18T05:37:36.744Z,3.40
2023-03-18T05:38:41.870Z,3.00
2023-03-18T05:39:44.905Z,3.33
2023-03-18T05:40:49.061Z,3.20
2023-03-18T05:41:57.897Z,3.50
2023-03-18T05:43:02.882Z,3.30
2023-03-18T05:44:11.450Z,3.17
2023-03-18T05:45:14.375Z,2.93
2023-03-18T05:46:23.740Z,3.47
2023-03-18T05:47:31.862Z,3.47
2023-03-18T05:48:41.550Z,3.47
2023-03-18T05:49:43.961Z,3.73
2023-03-18T05:50:58.710Z,3.50
2023-03-18T05:52:02.702Z,3.50
2023-03-18T05:53:13.201Z,3.87
2023-03-18T05:54:17.143Z,3.80
2023-03-18T05:55:19.838Z,3.27
2023-03-18T05:56:21.249Z,4.20
2023-03-18T05:57:26.371Z,3.80
2023-03-18T05:58:34.378Z,3.13
2023-03-18T05:59:53.962Z,3.43
2023-03-18T06:00:56.012Z,3.87
2023-03-18T06:01:57.454Z,3.77
2023-03-18T06:02:59.462Z,3.17
2023-03-18T06:04:01.655Z,3.20
2023-03-18T06:05:03.022Z,3.57
2023-03-18T06:06:04.545Z,3.83
2023-03-18T06:07:06.345Z,3.67
2023-03-18T06:08:08.332Z,3.50
2023-03-18T06:09:12.764Z,3.30
2023-03-18T06:10:18.038Z,3.50
2023-03-18T06:11:21.181Z,3.33
2023-03-18T06:12:27.278Z,3.30
2023-03-18T06:13:28.661Z,3.90
2023-03-18T06:14:30.063Z,3.37
2023-03-18T06:15:34.884Z,3.70
2023-03-18T06:16:36.802Z,3.90
2023-03-18T06:17:38.321Z,3.53
2023-03-18T06:18:40.517Z,3.20
2023-03-18T06:19:44.950Z,3.47
2023-03-18T06:20:46.812Z,3.40
2023-03-18T06:21:48.473Z,3.30
2023-03-18T06:22:50.187Z,3.80
2023-03-18T06:23:51.864Z,3.43
2023-03-18T06:24:53.661Z,3.10
2023-03-18T06:25:55.583Z,3.20
2023-03-18T06:27:03.777Z,3.30
2023-03-18T06:28:05.262Z,3.43
2023-03-18T06:29:07.042Z,3.10
2023-03-18T06:30:09.406Z,3.30
2023-03-18T06:31:12.393Z,3.50
2023-03-18T06:32:13.824Z,3.60
2023-03-18T06:33:15.302Z,3.53
2023-03-18T06:34:16.690Z,3.13
2023-03-18T06:35:18.766Z,3.07
2023-03-18T06:36:20.677Z,3.17
2023-03-18T06:37:25.076Z,3.47
2023-03-18T06:38:27.516Z,3.20
2023-03-18T06:39:30.586Z,2.57
2023-03-18T06:40:33.606Z,3.13
2023-03-18T06:41:35.137Z,2.70
2023-03-18T06:43:06.030Z,2.70
2023-03-18T06:44:11.175Z,3.17
2023-03-18T06:45:13.201Z,2.77
2023-03-18T06:46:26.312Z,3.10
2023-03-18T06:47:28.826Z,2.77
2023-03-18T06:48:32.862Z,2.80
2023-03-18T06:49:34.247Z,2.70
2023-03-18T06:50:49.994Z,2.77
2023-03-18T06:51:59.398Z,2.93
2023-03-18T06:53:00.738Z,3.00
2023-03-18T06:54:05.710Z,2.80
2023-03-18T06:55:09.388Z,2.90
2023-03-18T06:56:16.012Z,2.70
2023-03-18T06:57:34.511Z,2.60
2023-03-18T06:58:36.421Z,2.60
2023-03-18T06:59:41.658Z,3.00
2023-03-18T07:00:45.350Z,3.10
2023-03-18T07:01:52.186Z,2.93
2023-03-18T07:02:55.071Z,2.73
2023-03-18T07:04:00.631Z,2.90
2023-03-18T07:05:04.595Z,3.00
2023-03-18T07:06:10.413Z,3.00
2023-03-18T07:07:13.001Z,3.80
2023-03-18T07:08:16.625Z,3.87
2023-03-18T07:09:18.704Z,4.50
2023-03-18T07:10:27.717Z,4.37
2023-03-18T07:11:34.968Z,4.13
2023-03-18T07:12:41.870Z,4.43
2023-03-18T07:13:44.110Z,4.53
2023-03-18T07:14:53.774Z,4.20
2023-03-18T07:15:56.865Z,4.03
2023-03-18T07:16:59.183Z,3.93
2023-03-18T07:18:00.578Z,3.80
2023-03-18T07:19:02.783Z,3.50
2023-03-18T07:20:05.674Z,2.90
2023-03-18T07:21:10.172Z,2.90
2023-03-18T07:22:11.544Z,2.80
2023-03-18T07:23:13.045Z,3.07
2023-03-18T07:24:14.568Z,2.77
2023-03-18T07:25:16.154Z,2.67
2023-03-18T07:26:18.059Z,2.13
2023-03-18T07:27:19.430Z,2.70
2023-03-18T07:28:21.007Z,2.57
2023-03-18T07:29:22.405Z,2.40
2023-03-18T07:30:23.742Z,2.53
2023-03-18T07:31:25.375Z,2.43
2023-03-18T07:32:26.863Z,2.53
2023-03-18T07:33:28.639Z,2.60
2023-03-18T07:34:29.944Z,2.83
2023-03-18T07:35:31.736Z,2.80
2023-03-18T07:36:33.227Z,2.60
2023-03-18T07:37:35.901Z,2.67
2023-03-18T07:38:37.208Z,2.70
2023-03-18T07:39:38.758Z,2.90
2023-03-18T07:40:40.075Z,2.90
2023-03-18T07:41:41.440Z,2.20
2023-03-18T07:42:42.893Z,2.37
2023-03-18T07:43:44.222Z,2.10
2023-03-18T07:44:45.535Z,2.30
2023-03-18T07:45:46.875Z,2.40
2023-03-18T07:46:48.307Z,2.70
2023-03-18T07:47:49.695Z,2.10
2023-03-18T07:48:51.660Z,2.40
2023-03-18T07:49:53.048Z,2.80
2023-03-18T07:50:54.432Z,2.53
2023-03-18T07:51:56.379Z,2.93
2023-03-18T07:52:57.823Z,2.80
2023-03-18T07:53:59.226Z,2.73
2023-03-18T07:55:00.811Z,2.83
2023-03-18T07:56:03.453Z,2.43
2023-03-18T07:57:05.133Z,2.47
2023-03-18T07:58:07.541Z,2.80
2023-03-18T07:59:10.331Z,2.30
2023-03-18T08:00:12.472Z,2.80
2023-03-18T08:01:18.433Z,2.70
2023-03-18T08:02:21.636Z,2.93
2023-03-18T08:03:23.053Z,2.93
2023-03-18T08:04:25.109Z,2.73
2023-03-18T08:05:27.355Z,2.07
2023-03-18T08:06:28.859Z,2.30
2023-03-18T08:07:30.607Z,2.40
2023-03-18T08:08:32.016Z,2.30
2023-03-18T08:09:33.304Z,2.20
2023-03-18T08:10:35.327Z,2.30
2023-03-18T08:11:37.030Z,1.87
2023-03-18T08:12:52.073Z,2.00
2023-03-18T08:13:54.237Z,2.30
2023-03-18T08:14:55.527Z,2.20
2023-03-18T08:15:57.722Z,1.90
2023-03-18T08:16:59.340Z,1.90
2023-03-18T08:18:00.706Z,2.50
2023-03-18T08:19:02.069Z,2.10
2023-03-18T08:20:04.440Z,2.20
2023-03-18T08:21:05.989Z,2.40
2023-03-18T08:22:08.145Z,2.40
2023-03-18T08:23:09.432Z,1.83
2023-03-18T08:24:11.025Z,1.90
2023-03-18T08:25:13.465Z,2.13
2023-03-18T08:26:14.773Z,1.83
2023-03-18T08:27:16.092Z,1.80
2023-03-18T08:28:17.744Z,2.10
2023-03-18T08:29:19.156Z,2.10
2023-03-18T08:30:20.493Z,1.90
2023-03-18T08:31:21.867Z,1.87
2023-03-18T08:32:23.210Z,2.13
2023-03-18T08:33:25.337Z,2.10
2023-03-18T08:34:26.741Z,1.80
2023-03-18T08:35:28.117Z,2.00
2023-03-18T08:36:29.432Z,2.10
2023-03-18T08:37:31.213Z,2.37
2023-03-18T08:38:32.637Z,1.90
2023-03-18T08:39:33.968Z,1.93
2023-03-18T08:40:35.381Z,1.73
2023-03-18T08:41:36.801Z,1.90
2023-03-18T08:42:38.149Z,2.00
2023-03-18T08:43:39.698Z,2.03
2023-03-18T08:44:41.687Z,2.03
2023-03-18T08:45:43.344Z,1.97
2023-03-18T08:46:47.845Z,2.00
2023-03-18T08:47:50.025Z,2.43
2023-03-18T08:48:51.576Z,2.30
2023-03-18T08:49:52.880Z,2.13
2023-03-18T08:50:54.610Z,2.13
2023-03-18T08:51:56.583Z,2.10
2023-03-18T08:52:58.769Z,2.10
2023-03-18T08:54:00.652Z,2.27
2023-03-18T08:55:02.253Z,1.80
2023-03-18T08:56:05.778Z,2.00
2023-03-18T08:57:07.087Z,1.80
2023-03-18T08:58:08.476Z,2.30
2023-03-18T08:59:10.341Z,2.27
2023-03-18T09:00:12.094Z,2.27
2023-03-18T09:01:14.015Z,2.20
2023-03-18T09:02:18.538Z,2.10
2023-03-18T09:03:19.992Z,2.40
2023-03-18T09:04:21.562Z,2.20
2023-03-18T09:05:22.889Z,2.23
2023-03-18T09:06:24.228Z,2.20
2023-03-18T09:07:25.600Z,2.10
2023-03-18T09:08:29.203Z,1.70
2023-03-18T09:09:42.699Z,2.20
2023-03-18T09:10:45.327Z,2.00
2023-03-18T09:11:47.963Z,2.00
2023-03-18T09:12:50.009Z,2.00
2023-03-18T09:13:52.171Z,2.50
2023-03-18T09:14:53.652Z,2.60
2023-03-18T09:15:55.006Z,2.00
2023-03-18T09:16:56.476Z,2.20
2023-03-18T09:18:11.074Z,1.90
2023-03-18T09:19:13.830Z,2.00
2023-03-18T09:20:16.456Z,1.87
2023-03-18T09:21:18.355Z,1.67
2023-03-18T09:22:19.802Z,2.07
2023-03-18T09:23:21.304Z,2.10
2023-03-18T09:24:22.622Z,1.70
2023-03-18T09:25:24.648Z,2.13
2023-03-18T09:26:26.015Z,2.10
2023-03-18T09:27:27.560Z,1.70
2023-03-18T09:28:28.955Z,1.93
2023-03-18T09:29:30.613Z,1.80
2023-03-18T09:30:32.435Z,2.20
2023-03-18T09:31:33.843Z,1.77
2023-03-18T09:32:35.260Z,1.70
2023-03-18T09:33:37.082Z,1.80
2023-03-18T09:34:38.570Z,1.80
2023-03-18T09:35:40.043Z,1.67
2023-03-18T09:36:43.538Z,1.70
2023-03-18T09:37:45.022Z,1.80
2023-03-18T09:38:46.334Z,1.77
2023-03-18T09:39:47.854Z,1.83
2023-03-18T09:40:58.253Z,1.47
2023-03-18T09:42:02.629Z,2.03
2023-03-18T09:43:03.895Z,2.67
2023-03-18T09:44:09.375Z,2.20
2023-03-18T09:45:17.288Z,1.90
2023-03-18T09:46:25.068Z,1.90
2023-03-18T09:47:45.817Z,1.70
2023-03-18T09:49:14.945Z,1.80
2023-03-18T09:50:34.770Z,1.90
2023-03-18T09:51:41.871Z,1.60
2023-03-18T09:52:46.519Z,1.70
2023-03-18T09:53:56.795Z,1.70
2023-03-18T09:55:03.568Z,1.70
2023-03-18T09:56:06.123Z,1.90
2023-03-18T09:57:31.103Z,1.60
2023-03-18T09:58:46.472Z,1.80
2023-03-18T09:59:50.262Z,1.83
2023-03-18T10:01:00.737Z,2.03
2023-03-18T10:02:02.410Z,1.43
2023-03-18T10:03:11.382Z,1.60
2023-03-18T10:04:20.021Z,1.83
2023-03-18T10:05:26.411Z,1.60
2023-03-18T10:06:27.972Z,1.60
2023-03-18T10:07:32.487Z,1.70
2023-03-18T10:08:46.444Z,1.70
2023-03-18T10:09:53.919Z,1.70
2023-03-18T10:11:03.955Z,1.60
2023-03-18T10:12:11.319Z,1.90
2023-03-18T10:13:30.970Z,1.70
2023-03-18T10:14:39.767Z,2.37
2023-03-18T10:15:45.563Z,1.80
2023-03-18T10:16:55.854Z,2.00
2023-03-18T10:18:05.081Z,1.60
2023-03-18T10:19:08.329Z,1.50
2023-03-18T10:20:28.558Z,1.93
2023-03-18T10:21:29.881Z,1.83
2023-03-18T10:22:31.169Z,1.90
2023-03-18T10:24:02.065Z,1.60
2023-03-18T10:25:22.031Z,1.70
2023-03-18T10:26:44.000Z,1.77
2023-03-18T10:28:06.583Z,2.10
2023-03-18T10:29:17.178Z,1.50
2023-03-18T10:30:34.312Z,1.60
2023-03-18T10:31:54.893Z,1.60
2023-03-18T10:33:03.854Z,1.43
2023-03-18T10:34:06.327Z,1.50
2023-03-18T10:35:18.136Z,1.70
2023-03-18T10:36:22.319Z,1.90
2023-03-18T10:37:31.618Z,1.35
2023-03-18T10:38:36.243Z,1.40
2023-03-18T10:39:37.626Z,1.23
2023-03-18T10:40:41.176Z,1.40
2023-03-18T10:41:43.646Z,1.65
2023-03-18T10:42:45.585Z,1.25
2023-03-18T10:43:49.564Z,1.70
2023-03-18T10:44:51.359Z,2.28
2023-03-18T10:46:03.397Z,2.05
2023-03-18T10:47:07.956Z,1.33
2023-03-18T10:48:22.148Z,1.55
2023-03-18T10:49:25.688Z,1.43
2023-03-18T10:50:31.811Z,1.45
2023-03-18T10:51:33.267Z,1.30
2023-03-18T10:52:38.012Z,1.60
2023-03-18T10:53:46.645Z,1.40
2023-03-18T10:54:52.406Z,1.50
2023-03-18T10:56:06.464Z,1.40
2023-03-18T10:57:13.026Z,1.30
2023-03-18T10:58:16.179Z,1.77
2023-03-18T10:59:18.718Z,1.90
2023-03-18T11:00:26.508Z,1.70
2023-03-18T11:01:28.794Z,1.33
2023-03-18T11:02:32.464Z,1.67
2023-03-18T11:03:35.566Z,2.40
2023-03-18T11:04:42.350Z,1.80
2023-03-18T11:05:45.488Z,2.65
2023-03-18T11:06:53.068Z,1.63
2023-03-18T11:07:55.479Z,1.83
2023-03-18T11:09:02.848Z,1.63
2023-03-18T11:10:18.089Z,1.70
2023-03-18T11:11:26.428Z,1.83
2023-03-18T11:12:28.937Z,1.35
2023-03-18T11:13:30.244Z,1.60
2023-03-18T11:14:32.669Z,1.50
2023-03-18T11:15:38.328Z,1.48
2023-03-18T11:16:42.518Z,1.60
2023-03-18T11:17:48.218Z,1.60
2023-03-18T11:18:51.256Z,1.60
2023-03-18T11:20:08.166Z,1.58
2023-03-18T11:21:12.992Z,1.98
2023-03-18T11:22:24.340Z,1.50
2023-03-18T11:23:56.068Z,1.40
2023-03-18T11:25:03.537Z,1.50
2023-03-18T11:26:07.941Z,1.52
2023-03-18T11:27:18.425Z,1.30
2023-03-18T11:28:21.727Z,1.27
2023-03-18T11:29:26.134Z,1.38
2023-03-18T11:30:36.330Z,1.58
2023-03-18T11:31:58.389Z,1.40
2023-03-18T11:33:12.606Z,1.38
2023-03-18T11:34:16.661Z,1.20
2023-03-18T11:35:19.978Z,1.23
2023-03-18T11:36:23.849Z,1.08
2023-03-18T11:37:33.017Z,1.17
2023-03-18T11:38:35.638Z,1.25
2023-03-18T11:39:38.481Z,1.40
2023-03-18T11:40:40.127Z,1.55
2023-03-18T11:41:41.465Z,1.27
2023-03-18T11:42:43.138Z,1.38
2023-03-18T11:44:06.284Z,1.25
2023-03-18T11:45:29.674Z,1.80
2023-03-18T11:46:33.732Z,1.50
2023-03-18T11:47:36.419Z,1.30
2023-03-18T11:48:39.143Z,1.35
2023-03-18T11:49:42.890Z,1.50
2023-03-18T11:51:13.722Z,1.55
2023-03-18T11:52:27.299Z,1.70
2023-03-18T11:53:55.272Z,1.60
2023-03-18T11:55:01.490Z,1.63
2023-03-18T11:56:03.556Z,1.20
2023-03-18T11:57:17.375Z,1.53
2023-03-18T11:58:24.767Z,1.35
2023-03-18T11:59:26.717Z,1.60
2023-03-18T12:00:29.351Z,1.40
2023-03-18T12:01:38.703Z,1.30
2023-03-18T12:03:03.471Z,1.60
2023-03-18T12:04:29.639Z,1.50
2023-03-18T12:05:34.637Z,1.60
2023-03-18T12:07:00.552Z,1.67
2023-03-18T12:08:12.622Z,1.80
2023-03-18T12:09:14.289Z,1.42
2023-03-18T12:10:23.980Z,1.38
2023-03-18T12:11:30.959Z,1.50
2023-03-18T12:12:46.175Z,1.40
2023-03-18T12:13:52.726Z,3.53
2023-03-18T12:15:01.012Z,1.60
2023-03-18T12:16:12.937Z,1.50
2023-03-18T12:17:14.219Z,1.60
2023-03-18T12:18:27.536Z,1.40
2023-03-18T12:19:35.269Z,1.58
2023-03-18T12:20:45.956Z,1.50
2023-03-18T12:21:59.619Z,1.30
2023-03-18T12:23:21.405Z,1.90
2023-03-18T12:24:46.929Z,1.60
2023-03-18T12:26:03.254Z,1.73
2023-03-18T12:27:07.432Z,1.40
2023-03-18T12:28:21.851Z,2.00
2023-03-18T12:29:25.909Z,1.60
2023-03-18T12:30:39.443Z,1.58
2023-03-18T12:31:52.086Z,1.65
2023-03-18T12:33:10.934Z,1.60
2023-03-18T12:34:21.047Z,1.20
2023-03-18T12:35:22.541Z,1.08
2023-03-18T12:36:31.933Z,1.38
2023-03-18T12:37:39.459Z,1.40
2023-03-18T12:38:44.375Z,1.40
2023-03-18T12:39:58.338Z,1.15
2023-03-18T12:40:59.618Z,1.73
2023-03-18T12:42:13.430Z,1.90
2023-03-18T12:43:21.678Z,1.88
2023-03-18T12:44:22.962Z,2.03
2023-03-18T12:45:26.688Z,2.00
2023-03-18T12:46:36.439Z,1.85
2023-03-18T12:47:54.970Z,1.77
2023-03-18T12:49:03.932Z,1.75
2023-03-18T12:50:08.635Z,1.40
2023-03-18T12:51:12.802Z,1.20
2023-03-18T12:52:37.933Z,1.40
2023-03-18T12:53:44.103Z,1.20
2023-03-18T12:54:49.117Z,1.40
2023-03-18T12:55:54.655Z,1.70
2023-03-18T12:57:16.256Z,1.80
2023-03-18T12:58:25.652Z,1.60
2023-03-18T12:59:31.708Z,1.52
2023-03-18T13:00:36.352Z,1.30
2023-03-18T13:01:47.503Z,1.85
2023-03-18T13:03:00.738Z,1.52
2023-03-18T13:04:02.698Z,1.42
2023-03-18T13:05:06.068Z,1.50
2023-03-18T13:06:07.762Z,1.70
2023-03-18T13:07:16.423Z,1.38
2023-03-18T13:08:36.259Z,1.45
2023-03-18T13:09:39.907Z,1.38
2023-03-18T13:10:43.116Z,1.52
2023-03-18T13:11:48.230Z,1.30
2023-03-18T13:12:52.994Z,1.40
2023-03-18T13:13:57.014Z,1.60
2023-03-18T13:15:04.703Z,1.30
2023-03-18T13:16:06.848Z,1.27
2023-03-18T13:17:17.117Z,1.50
2023-03-18T13:18:24.851Z,1.40
2023-03-18T13:19:27.082Z,1.45
2023-03-18T13:20:37.654Z,1.50
2023-03-18T13:21:44.558Z,1.58
2023-03-18T13:23:00.224Z,1.60
2023-03-18T13:24:14.795Z,1.70
2023-03-18T13:25:42.514Z,1.30
2023-03-18T13:26:46.902Z,1.20
2023-03-18T13:27:48.459Z,1.20
2023-03-18T13:29:00.912Z,1.20
2023-03-18T13:30:02.501Z,1.30
2023-03-18T13:31:04.587Z,1.30
2023-03-18T13:32:08.911Z,1.40
2023-03-18T13:33:29.084Z,1.70
2023-03-18T13:34:31.484Z,1.20
2023-03-18T13:35:39.334Z,1.40
2023-03-18T13:36:53.193Z,1.25
2023-03-18T13:38:13.858Z,1.40
2023-03-18T13:39:33.791Z,1.00
2023-03-18T13:40:56.112Z,1.30
2023-03-18T13:42:18.064Z,1.30
2023-03-18T13:43:21.834Z,1.20
2023-03-18T13:44:52.431Z,1.35
2023-03-18T13:45:54.289Z,1.65
2023-03-18T13:47:03.884Z,1.63
2023-03-18T13:48:07.446Z,1.48
2023-03-18T13:49:16.545Z,1.50
2023-03-18T13:50:20.633Z,1.30
2023-03-18T13:51:25.119Z,1.77
2023-03-18T13:52:35.108Z,1.42
2023-03-18T13:53:41.535Z,1.65
2023-03-18T13:54:43.094Z,1.52
2023-03-18T13:56:07.765Z,1.40
2023-03-18T13:57:35.839Z,1.55
2023-03-18T13:58:45.202Z,1.60
2023-03-18T13:59:47.168Z,1.52
2023-03-18T14:00:54.599Z,1.70
2023-03-18T14:01:58.411Z,1.50
2023-03-18T14:03:20.103Z,1.50
2023-03-18T14:04:31.557Z,1.67
2023-03-18T14:05:35.603Z,1.40
2023-03-18T14:06:36.944Z,1.90
2023-03-18T14:07:46.726Z,1.67
2023-03-18T14:08:49.114Z,1.90
2023-03-18T14:10:02.544Z,1.58
2023-03-18T14:11:25.968Z,2.00
2023-03-18T14:12:30.757Z,1.77
2023-03-18T14:13:33.385Z,1.90
2023-03-18T14:14:56.644Z,1.80
2023-03-18T14:15:58.782Z,1.77
2023-03-18T14:17:00.538Z,1.90
2023-03-18T14:18:01.934Z,2.00
2023-03-18T14:19:24.123Z,2.00
2023-03-18T14:20:27.732Z,1.95
2023-03-18T14:21:30.306Z,2.05
2023-03-18T14:22:36.398Z,1.88
2023-03-18T14:23:39.490Z,1.77
2023-03-18T14:24:40.886Z,1.45
2023-03-18T14:25:43.008Z,1.98
2023-03-18T14:26:59.334Z,1.38
2023-03-18T14:28:06.902Z,1.60
2023-03-18T14:29:09.272Z,1.48
2023-03-18T14:30:29.452Z,1.30